sensor_id;sensor_type;location;lat;lon;timestamp;P1;durP1;ratioP1;P2;durP2;ratioP2
55915;SDS011;41826;53.246;-6.670;2023-04-01T00:02:05;1.73;;;1.02;;
55915;SDS011;41826;53.246;-6.670;2023-04-01T00:04:31;1.15;;;0.95;;
55915;SDS011;41826;53.246;-6.670;2023-04-01T00:06:57;2.65;;;1.10;;
55915;SDS011;41826;53.246;-6.670;2023-04-01T00:09:22;1.25;;;1.15;;
55915;SDS011;41826;53.246;-6.670;2023-04-01T00:11:48;1.42;;;1.00;;
55915;SDS011;41826;53.246;-6.670;2023-04-01T00:14:13;3.08;;;1.15;;
55915;SDS011;41826;53.246;-6.670;2023-04-01T00:16:39;2.65;;;1.30;;
55915;SDS011;41826;53.246;-6.670;2023-04-01T00:19:04;2.40;;;1.10;;
55915;SDS011;41826;53.246;-6.670;2023-04-01T00:21:30;1.30;;;1.00;;
55915;SDS011;41826;53.246;-6.670;2023-04-01T00:23:55;2.58;;;1.20;;
55915;SDS011;41826;53.246;-6.670;2023-04-01T00:26:21;2.55;;;1.17;;
55915;SDS011;41826;53.246;-6.670;2023-04-01T00:28:47;1.73;;;1.30;;
55915;SDS011;41826;53.246;-6.670;2023-04-01T00:31:13;2.22;;;1.13;;
55915;SDS011;41826;53.246;-6.670;2023-04-01T00:33:39;1.90;;;1.45;;
55915;SDS011;41826;53.246;-6.670;2023-04-01T00:36:16;1.80;;;1.10;;
55915;SDS011;41826;53.246;-6.670;2023-04-01T00:38:43;1.33;;;1.05;;
55915;SDS011;41826;53.246;-6.670;2023-04-01T00:41:11;2.45;;;1.10;;
55915;SDS011;41826;53.246;-6.670;2023-04-01T00:43:39;1.67;;;1.23;;
55915;SDS011;41826;53.246;-6.670;2023-04-01T00:46:05;3.20;;;1.60;;
55915;SDS011;41826;53.246;-6.670;2023-04-01T00:48:32;2.42;;;1.30;;
55915;SDS011;41826;53.246;-6.670;2023-04-01T00:51:02;2.88;;;1.77;;
55915;SDS011;41826;53.246;-6.670;2023-04-01T00:53:31;1.70;;;1.40;;
55915;SDS011;41826;53.246;-6.670;2023-04-01T00:56:04;2.85;;;1.13;;
55915;SDS011;41826;53.246;-6.670;2023-04-01T00:58:35;1.27;;;1.20;;
55915;SDS011;41826;53.246;-6.670;2023-04-01T01:01:05;1.83;;;1.27;;
55915;SDS011;41826;53.246;-6.670;2023-04-01T01:03:33;2.83;;;1.27;;
55915;SDS011;41826;53.246;-6.670;2023-04-01T01:12:01;2.03;;;1.38;;
55915;SDS011;41826;53.246;-6.670;2023-04-01T01:14:42;2.03;;;1.60;;
55915;SDS011;41826;53.246;-6.670;2023-04-01T01:28:28;3.25;;;1.17;;
55915;SDS011;41826;53.246;-6.670;2023-04-01T01:39:10;4.18;;;1.42;;
55915;SDS011;41826;53.246;-6.670;2023-04-01T01:41:38;2.53;;;1.10;;
55915;SDS011;41826;53.246;-6.670;2023-04-01T01:44:07;3.28;;;1.30;;
55915;SDS011;41826;53.246;-6.670;2023-04-01T01:46:36;2.03;;;1.10;;
55915;SDS011;41826;53.246;-6.670;2023-04-01T01:49:04;1.33;;;1.05;;
55915;SDS011;41826;53.246;-6.670;2023-04-01T01:51:32;2.85;;;1.35;;
55915;SDS011;41826;53.246;-6.670;2023-04-01T01:53:58;3.80;;;1.35;;
55915;SDS011;41826;53.246;-6.670;2023-04-01T01:56:24;1.23;;;1.15;;
55915;SDS011;41826;53.246;-6.670;2023-04-01T01:58:54;1.75;;;1.08;;
55915;SDS011;41826;53.246;-6.670;2023-04-01T02:01:26;1.33;;;0.88;;
55915;SDS011;41826;53.246;-6.670;2023-04-01T02:03:54;3.13;;;1.20;;
55915;SDS011;41826;53.246;-6.670;2023-04-01T02:06:23;3.13;;;1.30;;
55915;SDS011;41826;53.246;-6.670;2023-04-01T02:08:54;1.58;;;1.13;;
55915;SDS011;41826;53.246;-6.670;2023-04-01T02:11:34;4.30;;;1.10;;
55915;SDS011;41826;53.246;-6.670;2023-04-01T02:16:40;1.48;;;1.35;;
55915;SDS011;41826;53.246;-6.670;2023-04-01T02:19:11;1.48;;;1.00;;
55915;SDS011;41826;53.246;-6.670;2023-04-01T02:21:38;3.95;;;1.40;;
55915;SDS011;41826;53.246;-6.670;2023-04-01T02:24:06;1.52;;;1.20;;
55915;SDS011;41826;53.246;-6.670;2023-04-01T02:26:35;1.33;;;1.23;;
55915;SDS011;41826;53.246;-6.670;2023-04-01T02:29:00;2.10;;;0.90;;
55915;SDS011;41826;53.246;-6.670;2023-04-01T02:31:28;1.13;;;1.05;;
55915;SDS011;41826;53.246;-6.670;2023-04-01T02:33:55;3.85;;;1.60;;
55915;SDS011;41826;53.246;-6.670;2023-04-01T02:36:21;3.03;;;1.60;;
55915;SDS011;41826;53.246;-6.670;2023-04-01T02:38:46;1.23;;;1.13;;
55915;SDS011;41826;53.246;-6.670;2023-04-01T02:41:14;1.73;;;0.90;;
55915;SDS011;41826;53.246;-6.670;2023-04-01T02:43:40;1.92;;;1.13;;
55915;SDS011;41826;53.246;-6.670;2023-04-01T02:46:05;2.50;;;1.25;;
55915;SDS011;41826;53.246;-6.670;2023-04-01T02:48:31;1.30;;;1.20;;
55915;SDS011;41826;53.246;-6.670;2023-04-01T02:50:56;1.58;;;0.82;;
55915;SDS011;41826;53.246;-6.670;2023-04-01T02:53:21;1.10;;;1.00;;
55915;SDS011;41826;53.246;-6.670;2023-04-01T02:55:47;1.58;;;0.90;;
55915;SDS011;41826;53.246;-6.670;2023-04-01T02:58:15;1.23;;;1.13;;
55915;SDS011;41826;53.246;-6.670;2023-04-01T03:00:41;1.00;;;0.90;;
55915;SDS011;41826;53.246;-6.670;2023-04-01T03:03:07;1.65;;;0.90;;
55915;SDS011;41826;53.246;-6.670;2023-04-01T03:05:33;2.28;;;1.15;;
55915;SDS011;41826;53.246;-6.670;2023-04-01T03:07:58;1.40;;;1.13;;
55915;SDS011;41826;53.246;-6.670;2023-04-01T03:10:24;1.35;;;0.90;;
55915;SDS011;41826;53.246;-6.670;2023-04-01T03:12:50;1.00;;;0.90;;
55915;SDS011;41826;53.246;-6.670;2023-04-01T03:15:15;1.35;;;0.90;;
55915;SDS011;41826;53.246;-6.670;2023-04-01T03:17:41;1.75;;;0.90;;
55915;SDS011;41826;53.246;-6.670;2023-04-01T03:20:07;2.88;;;1.20;;
55915;SDS011;41826;53.246;-6.670;2023-04-01T03:22:34;0.95;;;0.70;;
55915;SDS011;41826;53.246;-6.670;2023-04-01T03:25:00;3.17;;;0.98;;
55915;SDS011;41826;53.246;-6.670;2023-04-01T03:27:26;1.00;;;0.90;;
55915;SDS011;41826;53.246;-6.670;2023-04-01T03:29:52;0.90;;;0.80;;
55915;SDS011;41826;53.246;-6.670;2023-04-01T03:32:17;1.05;;;0.85;;
55915;SDS011;41826;53.246;-6.670;2023-04-01T03:34:42;1.80;;;0.82;;
55915;SDS011;41826;53.246;-6.670;2023-04-01T03:37:08;1.80;;;0.90;;
55915;SDS011;41826;53.246;-6.670;2023-04-01T03:39:33;1.52;;;1.00;;
55915;SDS011;41826;53.246;-6.670;2023-04-01T03:41:59;2.72;;;0.98;;
55915;SDS011;41826;53.246;-6.670;2023-04-01T03:44:25;1.08;;;0.82;;
55915;SDS011;41826;53.246;-6.670;2023-04-01T03:46:51;2.63;;;1.00;;
55915;SDS011;41826;53.246;-6.670;2023-04-01T03:49:16;1.17;;;1.10;;
55915;SDS011;41826;53.246;-6.670;2023-04-01T03:51:42;1.48;;;0.90;;
55915;SDS011;41826;53.246;-6.670;2023-04-01T03:54:08;2.72;;;0.90;;
55915;SDS011;41826;53.246;-6.670;2023-04-01T03:56:35;2.40;;;0.93;;
55915;SDS011;41826;53.246;-6.670;2023-04-01T03:59:02;2.50;;;1.00;;
55915;SDS011;41826;53.246;-6.670;2023-04-01T04:01:29;2.90;;;0.88;;
55915;SDS011;41826;53.246;-6.670;2023-04-01T04:03:55;2.58;;;1.05;;
55915;SDS011;41826;53.246;-6.670;2023-04-01T04:06:21;2.35;;;0.88;;
55915;SDS011;41826;53.246;-6.670;2023-04-01T04:08:46;1.85;;;0.85;;
55915;SDS011;41826;53.246;-6.670;2023-04-01T04:11:12;2.47;;;0.80;;
55915;SDS011;41826;53.246;-6.670;2023-04-01T04:13:37;2.92;;;0.90;;
55915;SDS011;41826;53.246;-6.670;2023-04-01T04:16:03;1.92;;;1.00;;
55915;SDS011;41826;53.246;-6.670;2023-04-01T04:18:29;2.95;;;1.23;;
55915;SDS011;41826;53.246;-6.670;2023-04-01T04:20:54;4.03;;;1.08;;
55915;SDS011;41826;53.246;-6.670;2023-04-01T04:23:20;1.17;;;0.80;;
55915;SDS011;41826;53.246;-6.670;2023-04-01T04:25:53;0.80;;;0.80;;
55915;SDS011;41826;53.246;-6.670;2023-04-01T04:28:23;1.13;;;0.90;;
55915;SDS011;41826;53.246;-6.670;2023-04-01T04:30:50;5.43;;;2.03;;
55915;SDS011;41826;53.246;-6.670;2023-04-01T04:33:16;1.60;;;1.08;;
55915;SDS011;41826;53.246;-6.670;2023-04-01T04:35:41;0.88;;;0.70;;
55915;SDS011;41826;53.246;-6.670;2023-04-01T04:38:07;1.70;;;1.10;;
55915;SDS011;41826;53.246;-6.670;2023-04-01T04:40:32;1.70;;;1.17;;
55915;SDS011;41826;53.246;-6.670;2023-04-01T04:42:58;2.97;;;1.20;;
55915;SDS011;41826;53.246;-6.670;2023-04-01T04:45:23;1.77;;;1.20;;
55915;SDS011;41826;53.246;-6.670;2023-04-01T04:47:48;1.80;;;0.82;;
55915;SDS011;41826;53.246;-6.670;2023-04-01T04:50:14;2.60;;;0.90;;
55915;SDS011;41826;53.246;-6.670;2023-04-01T04:52:39;1.80;;;0.80;;
55915;SDS011;41826;53.246;-6.670;2023-04-01T04:55:05;2.55;;;1.13;;
55915;SDS011;41826;53.246;-6.670;2023-04-01T04:57:30;1.40;;;0.88;;
55915;SDS011;41826;53.246;-6.670;2023-04-01T04:59:56;1.15;;;0.80;;
55915;SDS011;41826;53.246;-6.670;2023-04-01T05:02:21;3.10;;;1.00;;
55915;SDS011;41826;53.246;-6.670;2023-04-01T05:04:47;1.88;;;1.02;;
55915;SDS011;41826;53.246;-6.670;2023-04-01T05:07:12;1.50;;;0.95;;
55915;SDS011;41826;53.246;-6.670;2023-04-01T05:09:37;1.92;;;1.02;;
55915;SDS011;41826;53.246;-6.670;2023-04-01T05:12:03;2.95;;;1.02;;
55915;SDS011;41826;53.246;-6.670;2023-04-01T05:14:28;2.67;;;1.00;;
55915;SDS011;41826;53.246;-6.670;2023-04-01T05:16:54;3.50;;;1.13;;
55915;SDS011;41826;53.246;-6.670;2023-04-01T05:19:19;2.10;;;1.10;;
55915;SDS011;41826;53.246;-6.670;2023-04-01T05:21:45;1.90;;;1.30;;
55915;SDS011;41826;53.246;-6.670;2023-04-01T05:24:11;2.13;;;1.20;;
55915;SDS011;41826;53.246;-6.670;2023-04-01T05:26:36;3.88;;;1.60;;
55915;SDS011;41826;53.246;-6.670;2023-04-01T05:29:02;2.40;;;1.42;;
55915;SDS011;41826;53.246;-6.670;2023-04-01T05:31:28;1.63;;;1.20;;
55915;SDS011;41826;53.246;-6.670;2023-04-01T05:33:54;1.98;;;1.20;;
55915;SDS011;41826;53.246;-6.670;2023-04-01T05:36:19;1.83;;;1.17;;
55915;SDS011;41826;53.246;-6.670;2023-04-01T05:38:45;2.47;;;1.48;;
55915;SDS011;41826;53.246;-6.670;2023-04-01T05:41:11;3.15;;;1.42;;
55915;SDS011;41826;53.246;-6.670;2023-04-01T05:43:37;4.95;;;1.40;;
55915;SDS011;41826;53.246;-6.670;2023-04-01T05:46:03;3.08;;;1.17;;
55915;SDS011;41826;53.246;-6.670;2023-04-01T05:48:29;2.75;;;1.33;;
55915;SDS011;41826;53.246;-6.670;2023-04-01T05:50:55;1.20;;;1.10;;
55915;SDS011;41826;53.246;-6.670;2023-04-01T05:53:20;1.30;;;1.17;;
55915;SDS011;41826;53.246;-6.670;2023-04-01T05:55:45;1.80;;;1.00;;
55915;SDS011;41826;53.246;-6.670;2023-04-01T05:58:11;2.13;;;1.05;;
55915;SDS011;41826;53.246;-6.670;2023-04-01T06:00:36;3.90;;;1.48;;
55915;SDS011;41826;53.246;-6.670;2023-04-01T06:03:02;2.72;;;1.20;;
55915;SDS011;41826;53.246;-6.670;2023-04-01T06:05:28;1.65;;;1.10;;
55915;SDS011;41826;53.246;-6.670;2023-04-01T06:07:59;1.92;;;1.02;;
55915;SDS011;41826;53.246;-6.670;2023-04-01T06:10:42;4.38;;;1.00;;
55915;SDS011;41826;53.246;-6.670;2023-04-01T06:15:59;1.98;;;1.10;;
55915;SDS011;41826;53.246;-6.670;2023-04-01T06:21:33;1.75;;;1.10;;
55915;SDS011;41826;53.246;-6.670;2023-04-01T06:29:50;1.17;;;0.70;;
55915;SDS011;41826;53.246;-6.670;2023-04-01T06:35:11;1.33;;;0.80;;
55915;SDS011;41826;53.246;-6.670;2023-04-01T06:40:39;1.05;;;0.57;;
55915;SDS011;41826;53.246;-6.670;2023-04-01T06:51:43;1.10;;;0.50;;
55915;SDS011;41826;53.246;-6.670;2023-04-01T06:54:20;0.73;;;0.57;;
55915;SDS011;41826;53.246;-6.670;2023-04-01T06:56:53;2.20;;;0.70;;
55915;SDS011;41826;53.246;-6.670;2023-04-01T06:59:27;1.77;;;0.70;;
55915;SDS011;41826;53.246;-6.670;2023-04-01T07:01:55;1.88;;;0.82;;
55915;SDS011;41826;53.246;-6.670;2023-04-01T07:04:30;0.50;;;0.50;;
55915;SDS011;41826;53.246;-6.670;2023-04-01T07:06:59;0.98;;;0.60;;
55915;SDS011;41826;53.246;-6.670;2023-04-01T07:09:40;1.25;;;0.70;;
55915;SDS011;41826;53.246;-6.670;2023-04-01T07:12:43;1.27;;;0.52;;
55915;SDS011;41826;53.246;-6.670;2023-04-01T07:15:19;3.42;;;0.82;;
55915;SDS011;41826;53.246;-6.670;2023-04-01T07:17:51;1.15;;;0.63;;
55915;SDS011;41826;53.246;-6.670;2023-04-01T07:20:24;1.95;;;0.70;;
55915;SDS011;41826;53.246;-6.670;2023-04-01T07:22:56;1.35;;;0.60;;
55915;SDS011;41826;53.246;-6.670;2023-04-01T07:25:29;1.52;;;0.70;;
55915;SDS011;41826;53.246;-6.670;2023-04-01T07:28:05;1.00;;;0.90;;
55915;SDS011;41826;53.246;-6.670;2023-04-01T07:36:38;1.33;;;0.63;;
55915;SDS011;41826;53.246;-6.670;2023-04-01T07:41:40;1.08;;;0.60;;
55915;SDS011;41826;53.246;-6.670;2023-04-01T07:44:22;0.82;;;0.57;;
55915;SDS011;41826;53.246;-6.670;2023-04-01T07:52:21;1.07;;;0.50;;
55915;SDS011;41826;53.246;-6.670;2023-04-01T08:03:29;0.70;;;0.70;;
55915;SDS011;41826;53.246;-6.670;2023-04-01T08:06:13;0.85;;;0.77;;
55915;SDS011;41826;53.246;-6.670;2023-04-01T08:11:46;1.17;;;0.73;;
55915;SDS011;41826;53.246;-6.670;2023-04-01T08:19:54;0.82;;;0.60;;
55915;SDS011;41826;53.246;-6.670;2023-04-01T08:22:38;0.65;;;0.65;;
55915;SDS011;41826;53.246;-6.670;2023-04-01T08:25:09;0.82;;;0.82;;
55915;SDS011;41826;53.246;-6.670;2023-04-01T08:27:39;2.30;;;0.70;;
55915;SDS011;41826;53.246;-6.670;2023-04-01T08:30:18;0.70;;;0.70;;
55915;SDS011;41826;53.246;-6.670;2023-04-01T08:32:56;0.40;;;0.40;;
55915;SDS011;41826;53.246;-6.670;2023-04-01T08:35:31;0.40;;;0.38;;
55915;SDS011;41826;53.246;-6.670;2023-04-01T08:38:06;0.38;;;0.38;;
55915;SDS011;41826;53.246;-6.670;2023-04-01T08:43:43;0.40;;;0.40;;
55915;SDS011;41826;53.246;-6.670;2023-04-01T08:46:22;0.70;;;0.40;;
55915;SDS011;41826;53.246;-6.670;2023-04-01T08:49:23;0.50;;;0.50;;
55915;SDS011;41826;53.246;-6.670;2023-04-01T09:14:23;0.35;;;0.30;;
55915;SDS011;41826;53.246;-6.670;2023-04-01T09:35:48;0.30;;;0.30;;
55915;SDS011;41826;53.246;-6.670;2023-04-01T09:53:26;0.30;;;0.30;;
55915;SDS011;41826;53.246;-6.670;2023-04-01T10:09:12;0.40;;;0.40;;
55915;SDS011;41826;53.246;-6.670;2023-04-01T10:26:45;3.35;;;0.38;;
55915;SDS011;41826;53.246;-6.670;2023-04-01T10:36:52;0.40;;;0.40;;
55915;SDS011;41826;53.246;-6.670;2023-04-01T10:39:32;0.43;;;0.30;;
55915;SDS011;41826;53.246;-6.670;2023-04-01T11:15:02;0.35;;;0.35;;
55915;SDS011;41826;53.246;-6.670;2023-04-01T11:18:12;0.50;;;0.35;;
55915;SDS011;41826;53.246;-6.670;2023-04-01T11:26:19;0.30;;;0.30;;
55915;SDS011;41826;53.246;-6.670;2023-04-01T11:42:54;0.68;;;0.30;;
55915;SDS011;41826;53.246;-6.670;2023-04-01T12:01:46;0.43;;;0.43;;
55915;SDS011;41826;53.246;-6.670;2023-04-01T12:04:27;1.02;;;0.45;;
55915;SDS011;41826;53.246;-6.670;2023-04-01T12:07:29;0.95;;;0.30;;
55915;SDS011;41826;53.246;-6.670;2023-04-01T12:15:54;0.35;;;0.30;;
55915;SDS011;41826;53.246;-6.670;2023-04-01T12:57:28;2.28;;;0.43;;
55915;SDS011;41826;53.246;-6.670;2023-04-01T13:11:42;1.75;;;0.60;;
55915;SDS011;41826;53.246;-6.670;2023-04-01T13:16:42;1.23;;;0.30;;
55915;SDS011;41826;53.246;-6.670;2023-04-01T13:19:20;0.30;;;0.30;;
55915;SDS011;41826;53.246;-6.670;2023-04-01T13:22:15;0.47;;;0.40;;
55915;SDS011;41826;53.246;-6.670;2023-04-01T13:24:51;0.35;;;0.35;;
55915;SDS011;41826;53.246;-6.670;2023-04-01T13:27:29;0.52;;;0.30;;
55915;SDS011;41826;53.246;-6.670;2023-04-01T13:30:07;0.85;;;0.30;;
55915;SDS011;41826;53.246;-6.670;2023-04-01T13:41:18;0.32;;;0.30;;
55915;SDS011;41826;53.246;-6.670;2023-04-01T13:43:52;0.20;;;0.20;;
55915;SDS011;41826;53.246;-6.670;2023-04-01T13:47:08;0.95;;;0.43;;
55915;SDS011;41826;53.246;-6.670;2023-04-01T13:49:37;1.17;;;0.50;;
55915;SDS011;41826;53.246;-6.670;2023-04-01T14:20:02;1.27;;;0.65;;
55915;SDS011;41826;53.246;-6.670;2023-04-01T14:28:11;1.10;;;0.40;;
55915;SDS011;41826;53.246;-6.670;2023-04-01T14:50:17;0.60;;;0.40;;
55915;SDS011;41826;53.246;-6.670;2023-04-01T14:55:52;1.33;;;0.35;;
55915;SDS011;41826;53.246;-6.670;2023-04-01T14:58:21;2.95;;;1.00;;
55915;SDS011;41826;53.246;-6.670;2023-04-01T15:17:12;2.63;;;0.60;;
55915;SDS011;41826;53.246;-6.670;2023-04-01T15:22:43;4.70;;;0.50;;
55915;SDS011;41826;53.246;-6.670;2023-04-01T15:25:41;1.17;;;0.50;;
55915;SDS011;41826;53.246;-6.670;2023-04-01T15:34:29;2.55;;;0.80;;
55915;SDS011;41826;53.246;-6.670;2023-04-01T15:51:16;4.30;;;0.77;;
55915;SDS011;41826;53.246;-6.670;2023-04-01T15:57:01;5.05;;;0.70;;
55915;SDS011;41826;53.246;-6.670;2023-04-01T16:28:04;3.40;;;0.60;;
55915;SDS011;41826;53.246;-6.670;2023-04-01T16:31:10;3.45;;;0.60;;
55915;SDS011;41826;53.246;-6.670;2023-04-01T16:36:54;2.72;;;0.85;;
55915;SDS011;41826;53.246;-6.670;2023-04-01T16:39:53;4.30;;;0.90;;
55915;SDS011;41826;53.246;-6.670;2023-04-01T16:42:43;3.33;;;0.80;;
55915;SDS011;41826;53.246;-6.670;2023-04-01T16:47:51;3.25;;;1.25;;
55915;SDS011;41826;53.246;-6.670;2023-04-01T16:50:22;2.53;;;0.80;;
55915;SDS011;41826;53.246;-6.670;2023-04-01T16:53:09;6.75;;;1.60;;
55915;SDS011;41826;53.246;-6.670;2023-04-01T16:55:44;4.18;;;0.90;;
55915;SDS011;41826;53.246;-6.670;2023-04-01T16:58:18;6.13;;;0.85;;
55915;SDS011;41826;53.246;-6.670;2023-04-01T17:00:49;3.50;;;0.85;;
55915;SDS011;41826;53.246;-6.670;2023-04-01T17:03:32;4.95;;;0.80;;
55915;SDS011;41826;53.246;-6.670;2023-04-01T17:06:06;4.78;;;0.77;;
55915;SDS011;41826;53.246;-6.670;2023-04-01T17:09:05;2.05;;;0.70;;
55915;SDS011;41826;53.246;-6.670;2023-04-01T17:17:12;4.47;;;1.17;;
55915;SDS011;41826;53.246;-6.670;2023-04-01T17:27:59;2.92;;;0.95;;
55915;SDS011;41826;53.246;-6.670;2023-04-01T17:33:23;5.88;;;1.10;;
55915;SDS011;41826;53.246;-6.670;2023-04-01T17:43:37;3.30;;;1.30;;
55915;SDS011;41826;53.246;-6.670;2023-04-01T17:49:13;4.88;;;1.38;;
55915;SDS011;41826;53.246;-6.670;2023-04-01T17:57:43;3.50;;;1.23;;
55915;SDS011;41826;53.246;-6.670;2023-04-01T18:08:07;6.13;;;1.13;;
55915;SDS011;41826;53.246;-6.670;2023-04-01T18:10:41;4.55;;;1.20;;
55915;SDS011;41826;53.246;-6.670;2023-04-01T18:18:58;2.92;;;1.02;;
55915;SDS011;41826;53.246;-6.670;2023-04-01T18:24:28;5.65;;;1.75;;
55915;SDS011;41826;53.246;-6.670;2023-04-01T18:27:32;5.05;;;1.70;;
55915;SDS011;41826;53.246;-6.670;2023-04-01T18:29:50;5.25;;;1.05;;
55915;SDS011;41826;53.246;-6.670;2023-04-01T18:35:27;8.23;;;1.60;;
55915;SDS011;41826;53.246;-6.670;2023-04-01T18:41:03;6.20;;;1.35;;
55915;SDS011;41826;53.246;-6.670;2023-04-01T18:43:43;4.50;;;1.70;;
55915;SDS011;41826;53.246;-6.670;2023-04-01T18:46:29;6.03;;;1.48;;
55915;SDS011;41826;53.246;-6.670;2023-04-01T18:49:08;7.18;;;1.25;;
55915;SDS011;41826;53.246;-6.670;2023-04-01T18:51:44;4.93;;;1.10;;
55915;SDS011;41826;53.246;-6.670;2023-04-01T18:57:10;3.42;;;0.98;;
55915;SDS011;41826;53.246;-6.670;2023-04-01T18:59:39;9.82;;;1.48;;
55915;SDS011;41826;53.246;-6.670;2023-04-01T19:21:06;5.60;;;1.52;;
55915;SDS011;41826;53.246;-6.670;2023-04-01T19:29:21;8.25;;;1.60;;
55915;SDS011;41826;53.246;-6.670;2023-04-01T19:40:20;4.57;;;1.17;;
55915;SDS011;41826;53.246;-6.670;2023-04-01T19:43:02;6.85;;;1.38;;
55915;SDS011;41826;53.246;-6.670;2023-04-01T19:45:51;7.18;;;1.70;;
55915;SDS011;41826;53.246;-6.670;2023-04-01T19:48:34;4.63;;;2.03;;
55915;SDS011;41826;53.246;-6.670;2023-04-01T19:56:23;6.38;;;1.17;;
55915;SDS011;41826;53.246;-6.670;2023-04-01T19:59:19;5.20;;;1.58;;
55915;SDS011;41826;53.246;-6.670;2023-04-01T20:04:37;4.45;;;1.20;;
55915;SDS011;41826;53.246;-6.670;2023-04-01T20:09:51;8.43;;;1.88;;
55915;SDS011;41826;53.246;-6.670;2023-04-01T20:13:08;6.97;;;1.55;;
55915;SDS011;41826;53.246;-6.670;2023-04-01T20:15:40;5.70;;;1.40;;
55915;SDS011;41826;53.246;-6.670;2023-04-01T20:18:22;3.55;;;1.00;;
55915;SDS011;41826;53.246;-6.670;2023-04-01T20:26:25;5.25;;;2.28;;
55915;SDS011;41826;53.246;-6.670;2023-04-01T20:31:43;4.22;;;1.50;;
55915;SDS011;41826;53.246;-6.670;2023-04-01T20:34:22;4.35;;;1.25;;
55915;SDS011;41826;53.246;-6.670;2023-04-01T20:37:18;2.53;;;1.48;;
55915;SDS011;41826;53.246;-6.670;2023-04-01T20:50:45;9.73;;;1.70;;
55915;SDS011;41826;53.246;-6.670;2023-04-01T20:58:52;7.03;;;1.73;;
55915;SDS011;41826;53.246;-6.670;2023-04-01T21:07:06;6.35;;;1.92;;
55915;SDS011;41826;53.246;-6.670;2023-04-01T21:09:41;10.65;;;1.88;;
55915;SDS011;41826;53.246;-6.670;2023-04-01T21:45:50;10.27;;;1.30;;
55915;SDS011;41826;53.246;-6.670;2023-04-01T21:48:52;5.05;;;1.58;;
55915;SDS011;41826;53.246;-6.670;2023-04-01T21:51:42;5.20;;;1.48;;
55915;SDS011;41826;53.246;-6.670;2023-04-01T22:00:17;9.63;;;2.05;;
55915;SDS011;41826;53.246;-6.670;2023-04-01T22:03:03;3.95;;;1.80;;
55915;SDS011;41826;53.246;-6.670;2023-04-01T22:08:41;5.43;;;1.92;;
55915;SDS011;41826;53.246;-6.670;2023-04-01T22:19:12;5.65;;;1.75;;
55915;SDS011;41826;53.246;-6.670;2023-04-01T22:27:15;6.65;;;2.00;;
55915;SDS011;41826;53.246;-6.670;2023-04-01T22:32:46;7.10;;;2.03;;
55915;SDS011;41826;53.246;-6.670;2023-04-01T22:35:23;7.00;;;1.92;;
55915;SDS011;41826;53.246;-6.670;2023-04-01T22:43:39;7.07;;;2.35;;
55915;SDS011;41826;53.246;-6.670;2023-04-01T22:49:15;8.23;;;1.77;;
55915;SDS011;41826;53.246;-6.670;2023-04-01T22:54:41;7.65;;;2.50;;
55915;SDS011;41826;53.246;-6.670;2023-04-01T23:02:40;4.82;;;1.88;;
55915;SDS011;41826;53.246;-6.670;2023-04-01T23:05:15;8.93;;;2.20;;
55915;SDS011;41826;53.246;-6.670;2023-04-01T23:10:20;6.20;;;1.88;;
55915;SDS011;41826;53.246;-6.670;2023-04-01T23:12:51;7.35;;;1.52;;
55915;SDS011;41826;53.246;-6.670;2023-04-01T23:15:19;4.82;;;1.90;;
55915;SDS011;41826;53.246;-6.670;2023-04-01T23:23:20;9.25;;;2.03;;
55915;SDS011;41826;53.246;-6.670;2023-04-01T23:28:55;5.53;;;1.55;;
55915;SDS011;41826;53.246;-6.670;2023-04-01T23:32:23;4.63;;;1.70;;
55915;SDS011;41826;53.246;-6.670;2023-04-01T23:36:57;10.82;;;1.75;;
55915;SDS011;41826;53.246;-6.670;2023-04-01T23:39:35;2.90;;;1.42;;
55915;SDS011;41826;53.246;-6.670;2023-04-01T23:42:07;6.53;;;1.10;;
55915;SDS011;41826;53.246;-6.670;2023-04-01T23:44:54;3.08;;;1.40;;
55915;SDS011;41826;53.246;-6.670;2023-04-01T23:47:24;6.47;;;2.00;;
55915;SDS011;41826;53.246;-6.670;2023-04-01T23:49:55;5.97;;;1.88;;
55915;SDS011;41826;53.246;-6.670;2023-04-01T23:52:48;5.25;;;1.63;;
55915;SDS011;41826;53.246;-6.670;2023-04-01T23:55:19;6.20;;;2.10;;
